createdAt,value
2023-02-09T06:41:02.448Z,94.80
2023-02-09T06:43:32.616Z,105.90
2023-02-09T06:46:08.711Z,119.70
2023-02-09T06:48:38.860Z,111.80
2023-02-09T06:51:12.484Z,99.10
2023-02-09T06:53:41.029Z,103.20
2023-02-09T06:56:10.351Z,167.10
2023-02-09T06:58:42.632Z,151.90
2023-02-09T07:01:13.443Z,136.20
2023-02-09T07:03:45.126Z,142.20
2023-02-09T07:06:15.386Z,142.50
2023-02-09T07:08:47.218Z,125.40
2023-02-09T07:11:16.686Z,143.80
2023-02-09T07:13:46.702Z,155.40
2023-02-09T07:16:15.409Z,142.10
2023-02-09T07:18:47.018Z,131.50
2023-02-09T07:21:20.174Z,129.50
2023-02-09T07:23:49.522Z,135.50
2023-02-09T07:26:18.653Z,154.50
2023-02-09T07:28:47.291Z,124.30
2023-02-09T07:31:16.678Z,144.20
2023-02-09T07:33:48.456Z,145.90
2023-02-09T07:36:16.927Z,136.60
2023-02-09T07:38:45.369Z,145.10
2023-02-09T07:41:21.500Z,142.50
2023-02-09T07:43:51.080Z,136.30
2023-02-09T07:46:42.023Z,132.50
2023-02-09T07:49:11.368Z,145.50
2023-02-09T07:51:39.717Z,162.20
2023-02-09T07:54:10.526Z,187.80
2023-02-09T07:56:39.183Z,239.00
2023-02-09T07:59:09.365Z,241.40
2023-02-09T08:01:37.623Z,179.10
2023-02-09T08:04:06.479Z,162.00
2023-02-09T08:06:43.149Z,163.40
2023-02-09T08:09:30.039Z,133.60
2023-02-09T08:12:05.731Z,114.40
2023-02-09T08:14:40.035Z,123.10
2023-02-09T08:17:20.336Z,113.40
2023-02-09T08:20:00.639Z,121.30
2023-02-09T08:22:34.628Z,126.10
2023-02-09T08:25:06.472Z,131.80
2023-02-09T08:27:56.590Z,131.00
2023-02-09T08:30:25.603Z,114.30
2023-02-09T08:32:55.588Z,119.00
2023-02-09T08:35:24.174Z,110.70
2023-02-09T08:37:53.971Z,79.10
2023-02-09T08:40:22.299Z,76.80
2023-02-09T08:42:50.851Z,76.20
2023-02-09T08:45:19.596Z,77.40
2023-02-09T08:47:49.092Z,82.80
2023-02-09T08:50:18.204Z,61.80
2023-02-09T08:52:48.250Z,67.20
2023-02-09T08:55:16.548Z,69.90
2023-02-09T08:57:45.534Z,63.90
2023-02-09T09:00:20.298Z,49.20
2023-02-09T09:02:48.655Z,44.90
2023-02-09T09:05:35.522Z,45.30
2023-02-09T09:08:06.561Z,56.10
2023-02-09T09:10:54.014Z,50.90
2023-02-09T09:13:24.617Z,63.70
2023-02-09T09:15:54.451Z,46.80
2023-02-09T09:21:12.723Z,72.90
2023-02-09T09:23:41.090Z,54.80
2023-02-09T09:26:09.568Z,64.60
2023-02-09T09:28:37.983Z,55.30
2023-02-09T09:31:33.721Z,63.40
2023-02-09T09:34:04.159Z,55.90
2023-02-09T09:36:33.076Z,64.40
2023-02-09T09:39:25.860Z,64.00
2023-02-09T09:44:44.230Z,56.10
2023-02-09T09:47:21.030Z,58.40
2023-02-09T09:52:38.958Z,48.40
2023-02-09T09:55:08.355Z,38.50
2023-02-09T09:57:38.866Z,46.20
2023-02-09T10:00:19.712Z,35.40
2023-02-09T10:05:26.521Z,42.10
2023-02-09T10:08:11.037Z,36.10
2023-02-09T10:11:06.376Z,21.90
2023-02-09T10:13:56.875Z,24.70
2023-02-09T10:16:30.955Z,22.80
2023-02-09T10:19:04.288Z,31.60
2023-02-09T10:21:34.912Z,18.10
2023-02-09T10:24:15.036Z,19.30
2023-02-09T10:26:44.413Z,28.60
2023-02-09T10:29:13.017Z,23.90
2023-02-09T10:31:48.962Z,22.20
2023-02-09T10:34:19.540Z,22.00
2023-02-09T10:36:56.611Z,14.40
2023-02-09T10:39:34.447Z,16.30
2023-02-09T10:42:19.596Z,9.50
2023-02-09T10:44:50.144Z,31.10
2023-02-09T10:47:21.333Z,26.40
2023-02-09T10:50:11.413Z,9.20
2023-02-09T10:53:03.372Z,14.90
2023-02-09T10:55:52.005Z,11.80
2023-02-09T10:58:25.070Z,32.30
2023-02-09T11:01:08.946Z,17.30
2023-02-09T11:03:39.156Z,23.60
2023-02-09T11:06:18.842Z,12.70
2023-02-09T11:09:06.155Z,20.40
2023-02-09T11:14:45.484Z,21.40
2023-02-09T11:17:27.303Z,15.60
2023-02-09T11:20:10.138Z,14.50
2023-02-09T11:22:57.237Z,18.70
2023-02-09T11:25:48.609Z,11.60
2023-02-09T11:28:45.386Z,18.40
2023-02-09T11:31:36.437Z,7.80
2023-02-09T11:34:42.634Z,11.90
2023-02-09T11:37:30.394Z,12.60
2023-02-09T11:40:18.795Z,12.00
2023-02-09T11:43:15.596Z,23.00
2023-02-09T11:45:58.835Z,16.30
2023-02-09T11:48:39.375Z,23.10
2023-02-09T11:51:20.091Z,12.10
2023-02-09T11:53:49.510Z,16.70
2023-02-09T11:56:20.202Z,17.00
2023-02-09T12:01:52.514Z,9.70
2023-02-09T12:04:26.993Z,12.40
2023-02-09T12:07:21.622Z,13.00
2023-02-09T12:10:00.409Z,18.20
2023-02-09T12:12:28.792Z,18.50
2023-02-09T12:15:34.840Z,13.40
2023-02-09T12:18:13.536Z,14.30
2023-02-09T12:20:54.470Z,26.40
2023-02-09T12:23:53.575Z,21.60
2023-02-09T12:26:41.337Z,17.00
2023-02-09T12:29:39.104Z,13.10
2023-02-09T12:32:08.148Z,12.80
2023-02-09T12:34:41.314Z,9.60
2023-02-09T12:37:18.199Z,12.20
2023-02-09T12:40:18.509Z,14.10
2023-02-09T12:42:56.155Z,13.60
2023-02-09T12:45:36.311Z,19.40
2023-02-09T12:48:11.734Z,8.80
2023-02-09T12:50:44.289Z,9.90
2023-02-09T12:53:28.453Z,9.00
2023-02-09T12:56:28.285Z,13.50
2023-02-09T12:59:14.445Z,15.50
2023-02-09T13:02:08.230Z,11.10
2023-02-09T13:04:52.125Z,14.20
2023-02-09T13:07:34.194Z,15.50
2023-02-09T13:10:36.302Z,11.70
2023-02-09T13:16:29.860Z,16.00
2023-02-09T13:19:48.026Z,16.00
2023-02-09T13:22:39.819Z,10.90
2023-02-09T13:25:34.916Z,17.80
2023-02-09T13:28:17.238Z,14.80
2023-02-09T13:30:47.322Z,14.90
2023-02-09T13:34:07.336Z,15.20
2023-02-09T13:36:47.408Z,11.70
2023-02-09T13:39:25.004Z,15.60
2023-02-09T13:41:54.794Z,15.80
2023-02-09T13:44:30.773Z,17.70
2023-02-09T13:47:07.160Z,16.20
2023-02-09T13:49:37.888Z,19.30
2023-02-09T13:52:33.491Z,22.20
2023-02-09T13:55:23.474Z,18.20
2023-02-09T13:58:18.137Z,17.70
2023-02-09T14:04:20.919Z,19.70
2023-02-09T14:07:01.857Z,18.60
2023-02-09T14:09:50.980Z,43.00
2023-02-09T14:12:55.637Z,71.80
2023-02-09T14:15:56.782Z,33.80
2023-02-09T14:18:29.329Z,22.00
2023-02-09T14:21:03.761Z,16.70
2023-02-09T14:23:35.250Z,21.90
2023-02-09T14:29:25.485Z,25.90
2023-02-09T14:31:57.965Z,26.40
2023-02-09T14:34:36.076Z,60.60
2023-02-09T14:37:23.077Z,57.00
2023-02-09T14:40:14.206Z,36.70
2023-02-09T14:43:26.138Z,34.50
2023-02-09T14:46:08.431Z,47.40
2023-02-09T14:48:37.552Z,37.90
2023-02-09T14:51:14.025Z,26.20
2023-02-09T14:53:43.711Z,37.30
2023-02-09T14:56:30.689Z,21.00
2023-02-09T14:59:05.566Z,30.60
2023-02-09T15:01:35.065Z,23.60
2023-02-09T15:04:03.784Z,35.90
2023-02-09T15:06:35.156Z,24.10
2023-02-09T15:09:23.356Z,19.00
2023-02-09T15:12:27.021Z,17.20
2023-02-09T15:14:58.795Z,21.40
2023-02-09T15:17:29.479Z,14.90
2023-02-09T15:19:58.047Z,25.80
2023-02-09T15:25:30.460Z,23.20
2023-02-09T15:28:00.649Z,16.90
2023-02-09T15:30:32.408Z,14.20
2023-02-09T15:33:03.933Z,12.70
2023-02-09T15:35:32.368Z,28.60
2023-02-09T15:38:01.349Z,26.10
2023-02-09T15:40:49.810Z,29.10
2023-02-09T15:43:38.578Z,23.90
2023-02-09T15:46:07.582Z,32.10
2023-02-09T15:48:37.067Z,31.90
2023-02-09T15:51:05.450Z,37.80
2023-02-09T15:53:34.541Z,33.80
2023-02-09T15:56:03.037Z,28.00
2023-02-09T15:58:36.086Z,31.10
2023-02-09T16:01:04.999Z,57.50
2023-02-09T16:03:33.591Z,32.80
2023-02-09T16:06:12.309Z,34.70
2023-02-09T16:08:40.382Z,33.00
2023-02-09T16:11:15.741Z,43.70
2023-02-09T16:13:51.698Z,58.10
2023-02-09T16:16:20.197Z,37.80
2023-02-09T16:18:48.530Z,39.50
2023-02-09T16:21:22.329Z,50.20
2023-02-09T16:23:52.252Z,57.10
2023-02-09T16:26:21.110Z,88.20
2023-02-09T16:31:57.329Z,58.00
2023-02-09T16:34:25.805Z,67.80
2023-02-09T16:36:53.998Z,51.90
2023-02-09T16:39:22.471Z,56.00
2023-02-09T16:41:51.029Z,44.60
2023-02-09T16:44:19.644Z,52.90
2023-02-09T16:46:50.188Z,51.60
2023-02-09T16:52:17.703Z,45.60
2023-02-09T16:54:48.766Z,77.80
2023-02-09T16:57:19.515Z,59.30
2023-02-09T16:59:47.893Z,65.70
2023-02-09T17:02:28.864Z,54.10
2023-02-09T17:05:20.761Z,50.30
2023-02-09T17:08:22.448Z,56.70
2023-02-09T17:10:52.046Z,70.90
2023-02-09T17:13:23.306Z,61.20
2023-02-09T17:18:42.542Z,65.90
2023-02-09T17:21:27.136Z,79.90
2023-02-09T17:23:55.383Z,77.90
2023-02-09T17:26:24.327Z,81.00
2023-02-09T17:28:52.891Z,63.00
2023-02-09T17:31:26.696Z,59.70
2023-02-09T17:34:00.034Z,72.80
2023-02-09T17:36:29.592Z,71.50
2023-02-09T17:38:59.193Z,57.40
2023-02-09T17:41:32.730Z,57.70
2023-02-09T17:44:24.309Z,50.00
2023-02-09T17:46:57.234Z,55.70
2023-02-09T17:49:28.447Z,70.70
2023-02-09T17:51:56.970Z,77.80
2023-02-09T17:54:25.505Z,54.50
2023-02-09T17:56:53.683Z,60.70
2023-02-09T17:59:21.817Z,72.50
2023-02-09T18:01:50.515Z,111.40
2023-02-09T18:04:39.703Z,112.30
2023-02-09T18:07:09.507Z,163.10
2023-02-09T18:09:37.650Z,195.40
2023-02-09T18:15:29.466Z,154.90
2023-02-09T18:17:57.914Z,134.40
2023-02-09T18:20:33.456Z,104.50
2023-02-09T18:23:02.864Z,112.20
2023-02-09T18:25:49.873Z,120.10
2023-02-09T18:28:18.522Z,133.80
2023-02-09T18:30:46.788Z,174.50
2023-02-09T18:33:15.114Z,175.00
2023-02-09T18:35:44.758Z,158.90
2023-02-09T18:38:14.090Z,132.70
2023-02-09T18:43:31.387Z,120.30
2023-02-09T18:46:01.221Z,146.10
2023-02-09T18:51:33.885Z,124.70
2023-02-09T18:54:04.600Z,163.70
2023-02-09T19:04:36.154Z,97.30
2023-02-09T19:07:06.445Z,131.00
2023-02-09T19:09:36.444Z,178.10
2023-02-09T19:12:08.308Z,213.50
2023-02-09T19:14:56.754Z,147.60
2023-02-09T19:17:25.038Z,141.70
2023-02-09T19:19:57.199Z,132.10
2023-02-09T19:22:25.547Z,121.80
2023-02-09T19:24:55.829Z,126.70
2023-02-09T19:27:26.251Z,126.80
2023-02-09T19:29:55.831Z,110.80
2023-02-09T19:32:24.924Z,138.90
2023-02-09T19:34:53.713Z,125.00
2023-02-09T19:37:22.738Z,125.40
2023-02-09T19:40:00.503Z,122.90
2023-02-09T19:42:45.998Z,104.80
2023-02-09T19:45:15.185Z,86.40
2023-02-09T19:47:44.069Z,85.00
2023-02-09T19:50:12.350Z,79.30
2023-02-09T19:55:29.900Z,98.30
2023-02-09T19:57:58.120Z,87.20
2023-02-09T20:00:26.375Z,91.20
2023-02-09T20:02:54.722Z,103.60
2023-02-09T20:05:23.622Z,82.50
2023-02-09T20:07:54.558Z,97.30
2023-02-09T20:10:24.062Z,77.50
2023-02-09T20:12:52.152Z,88.00
2023-02-09T20:15:24.081Z,65.70
2023-02-09T20:17:52.564Z,59.00
2023-02-09T20:20:20.842Z,61.50
2023-02-09T20:22:50.549Z,68.80
2023-02-09T20:25:19.041Z,92.40
2023-02-09T20:27:48.862Z,136.00
2023-02-09T20:30:17.320Z,124.50
2023-02-09T20:35:49.096Z,111.10
2023-02-09T20:38:17.496Z,56.50
2023-02-09T20:40:46.435Z,51.20
2023-02-09T20:43:51.099Z,43.60
2023-02-09T20:46:42.329Z,47.40
2023-02-09T20:49:12.619Z,49.90
2023-02-09T20:51:41.113Z,41.70
2023-02-09T20:54:09.471Z,35.40
2023-02-09T20:56:39.611Z,34.10
2023-02-09T20:59:08.088Z,26.60
2023-02-09T21:01:38.416Z,41.90
2023-02-09T21:04:07.631Z,37.40
2023-02-09T21:06:37.441Z,30.90
2023-02-09T21:09:06.372Z,31.10
2023-02-09T21:11:34.866Z,26.40
2023-02-09T21:14:03.075Z,25.60
2023-02-09T21:16:31.442Z,32.30
2023-02-09T21:19:00.127Z,29.30
2023-02-09T21:21:46.121Z,26.60
2023-02-09T21:24:14.450Z,29.60
2023-02-09T21:26:43.100Z,24.70
2023-02-09T21:29:12.869Z,25.30
2023-02-09T21:31:41.558Z,24.40
2023-02-09T21:34:20.109Z,19.90
2023-02-09T21:36:48.790Z,20.40
2023-02-09T21:39:17.162Z,18.10
2023-02-09T21:42:04.028Z,24.10
2023-02-09T21:44:32.857Z,22.00
2023-02-09T21:47:01.337Z,25.80
2023-02-09T21:49:31.908Z,27.40
2023-02-09T21:52:00.454Z,31.30
2023-02-09T21:54:33.275Z,28.90
2023-02-09T21:57:19.126Z,37.90
2023-02-09T21:59:47.737Z,36.00
2023-02-09T22:02:19.396Z,34.70
2023-02-09T22:04:47.913Z,46.90
2023-02-09T22:07:16.334Z,47.60
2023-02-09T22:09:45.213Z,44.70
2023-02-09T22:12:13.727Z,47.00
2023-02-09T22:14:41.960Z,47.60
2023-02-09T22:17:10.336Z,51.70
2023-02-09T22:19:38.622Z,56.00
2023-02-09T22:22:07.091Z,58.90
2023-02-09T22:24:36.051Z,49.90
2023-02-09T22:27:04.767Z,37.90
2023-02-09T22:29:34.563Z,43.50
2023-02-09T22:32:02.885Z,57.30
2023-02-09T22:34:31.241Z,44.60
2023-02-09T22:37:17.124Z,45.60
2023-02-09T22:42:32.925Z,47.70
2023-02-09T22:45:01.139Z,43.90
2023-02-09T22:47:29.681Z,58.80
2023-02-09T22:52:47.624Z,34.80
2023-02-09T22:55:15.892Z,43.20
2023-02-09T22:57:47.882Z,34.60
2023-02-09T23:00:17.080Z,45.60
2023-02-09T23:02:45.470Z,34.90
2023-02-09T23:05:13.621Z,38.10
2023-02-09T23:07:45.495Z,31.20
2023-02-09T23:10:13.976Z,37.40
2023-02-09T23:12:42.761Z,33.50
2023-02-09T23:17:57.900Z,34.70
2023-02-09T23:20:26.086Z,37.20
2023-02-09T23:22:56.435Z,37.70
2023-02-09T23:25:24.941Z,31.60
2023-02-09T23:27:53.227Z,24.10
2023-02-09T23:30:21.615Z,17.90
2023-02-09T23:32:54.378Z,22.80
2023-02-09T23:35:24.384Z,22.10
2023-02-09T23:37:52.700Z,25.70
2023-02-09T23:40:20.956Z,25.50
2023-02-09T23:42:53.217Z,24.90
2023-02-09T23:45:21.384Z,21.40
2023-02-09T23:47:49.754Z,24.30
2023-02-09T23:50:18.639Z,21.60
2023-02-09T23:52:47.015Z,27.30
2023-02-09T23:55:18.267Z,24.80
2023-02-09T23:57:48.284Z,24.60
